sensor_id;sensor_type;location;lat;lon;timestamp;P1;durP1;ratioP1;P2;durP2;ratioP2
4206;SDS011;2117;47.972;7.830;2023-01-20T02:41:05;1.50;;;1.00;;
4206;SDS011;2117;47.972;7.830;2023-01-20T02:43:37;1.60;;;1.00;;
4206;SDS011;2117;47.972;7.830;2023-01-20T02:46:29;1.60;;;0.80;;
4206;SDS011;2117;47.972;7.830;2023-01-20T02:49:12;1.40;;;0.80;;
4206;SDS011;2117;47.972;7.830;2023-01-20T02:51:44;1.67;;;1.00;;
4206;SDS011;2117;47.972;7.830;2023-01-20T02:54:17;6.13;;;1.20;;
4206;SDS011;2117;47.972;7.830;2023-01-20T02:56:45;2.10;;;1.20;;
4206;SDS011;2117;47.972;7.830;2023-01-20T02:59:13;4.60;;;1.40;;
4206;SDS011;2117;47.972;7.830;2023-01-20T03:01:44;2.37;;;1.67;;
4206;SDS011;2117;47.972;7.830;2023-01-20T03:04:33;2.40;;;1.63;;
4206;SDS011;2117;47.972;7.830;2023-01-20T03:07:03;2.57;;;1.37;;
4206;SDS011;2117;47.972;7.830;2023-01-20T03:09:33;2.23;;;1.33;;
4206;SDS011;2117;47.972;7.830;2023-01-20T03:12:09;1.37;;;0.87;;
4206;SDS011;2117;47.972;7.830;2023-01-20T03:14:40;2.33;;;1.30;;
4206;SDS011;2117;47.972;7.830;2023-01-20T03:17:06;3.00;;;0.90;;
4206;SDS011;2117;47.972;7.830;2023-01-20T03:19:31;4.30;;;1.40;;
4206;SDS011;2117;47.972;7.830;2023-01-20T03:21:57;2.93;;;1.73;;
4206;SDS011;2117;47.972;7.830;2023-01-20T03:24:23;2.63;;;1.10;;
4206;SDS011;2117;47.972;7.830;2023-01-20T03:26:52;3.90;;;1.60;;
4206;SDS011;2117;47.972;7.830;2023-01-20T03:29:18;4.20;;;1.47;;
4206;SDS011;2117;47.972;7.830;2023-01-20T03:31:47;2.87;;;1.70;;
4206;SDS011;2117;47.972;7.830;2023-01-20T03:34:19;4.50;;;2.10;;
4206;SDS011;2117;47.972;7.830;2023-01-20T03:36:47;2.33;;;1.30;;
4206;SDS011;2117;47.972;7.830;2023-01-20T03:39:14;2.93;;;1.63;;
4206;SDS011;2117;47.972;7.830;2023-01-20T03:41:43;3.63;;;1.77;;
4206;SDS011;2117;47.972;7.830;2023-01-20T03:44:28;2.67;;;1.33;;
4206;SDS011;2117;47.972;7.830;2023-01-20T03:47:21;2.13;;;1.47;;
4206;SDS011;2117;47.972;7.830;2023-01-20T03:50:09;5.80;;;1.70;;
4206;SDS011;2117;47.972;7.830;2023-01-20T03:55:29;2.20;;;1.10;;
4206;SDS011;2117;47.972;7.830;2023-01-20T03:58:14;2.20;;;1.27;;
4206;SDS011;2117;47.972;7.830;2023-01-20T04:00:45;2.43;;;1.40;;
4206;SDS011;2117;47.972;7.830;2023-01-20T04:03:32;2.83;;;1.50;;
4206;SDS011;2117;47.972;7.830;2023-01-20T04:06:03;2.10;;;1.40;;
4206;SDS011;2117;47.972;7.830;2023-01-20T04:08:32;1.80;;;1.50;;
4206;SDS011;2117;47.972;7.830;2023-01-20T04:11:00;1.83;;;0.90;;
4206;SDS011;2117;47.972;7.830;2023-01-20T04:13:29;5.77;;;1.47;;
4206;SDS011;2117;47.972;7.830;2023-01-20T04:15:55;2.20;;;1.27;;
4206;SDS011;2117;47.972;7.830;2023-01-20T04:18:23;4.00;;;1.60;;
4206;SDS011;2117;47.972;7.830;2023-01-20T04:21:01;1.77;;;1.20;;
4206;SDS011;2117;47.972;7.830;2023-01-20T04:23:31;1.70;;;1.30;;
4206;SDS011;2117;47.972;7.830;2023-01-20T04:26:04;2.07;;;1.13;;
4206;SDS011;2117;47.972;7.830;2023-01-20T04:28:30;2.90;;;1.33;;
4206;SDS011;2117;47.972;7.830;2023-01-20T04:30:56;2.70;;;1.33;;
4206;SDS011;2117;47.972;7.830;2023-01-20T04:33:22;2.70;;;1.77;;
4206;SDS011;2117;47.972;7.830;2023-01-20T04:35:47;2.43;;;1.50;;
4206;SDS011;2117;47.972;7.830;2023-01-20T04:38:13;2.33;;;1.37;;
4206;SDS011;2117;47.972;7.830;2023-01-20T04:40:38;2.60;;;1.07;;
4206;SDS011;2117;47.972;7.830;2023-01-20T04:43:04;2.00;;;0.90;;
4206;SDS011;2117;47.972;7.830;2023-01-20T04:45:29;3.63;;;2.47;;
4206;SDS011;2117;47.972;7.830;2023-01-20T04:47:55;3.63;;;2.50;;
4206;SDS011;2117;47.972;7.830;2023-01-20T04:50:21;5.33;;;3.90;;
4206;SDS011;2117;47.972;7.830;2023-01-20T04:52:46;6.23;;;4.37;;
4206;SDS011;2117;47.972;7.830;2023-01-20T04:55:12;6.07;;;4.60;;
4206;SDS011;2117;47.972;7.830;2023-01-20T04:57:38;7.50;;;4.60;;
4206;SDS011;2117;47.972;7.830;2023-01-20T05:00:04;6.30;;;5.20;;
4206;SDS011;2117;47.972;7.830;2023-01-20T05:02:30;7.53;;;4.70;;
4206;SDS011;2117;47.972;7.830;2023-01-20T05:04:56;10.87;;;5.90;;
4206;SDS011;2117;47.972;7.830;2023-01-20T05:07:22;6.30;;;4.00;;
4206;SDS011;2117;47.972;7.830;2023-01-20T05:09:47;3.30;;;2.40;;
4206;SDS011;2117;47.972;7.830;2023-01-20T05:12:13;3.10;;;2.03;;
4206;SDS011;2117;47.972;7.830;2023-01-20T05:14:38;2.67;;;1.37;;
4206;SDS011;2117;47.972;7.830;2023-01-20T05:17:04;2.40;;;1.50;;
4206;SDS011;2117;47.972;7.830;2023-01-20T05:19:29;3.50;;;1.77;;
4206;SDS011;2117;47.972;7.830;2023-01-20T05:21:55;4.20;;;1.50;;
4206;SDS011;2117;47.972;7.830;2023-01-20T05:24:20;3.13;;;2.30;;
4206;SDS011;2117;47.972;7.830;2023-01-20T05:26:46;2.60;;;1.87;;
4206;SDS011;2117;47.972;7.830;2023-01-20T05:29:11;4.40;;;2.50;;
4206;SDS011;2117;47.972;7.830;2023-01-20T05:31:37;10.20;;;5.60;;
4206;SDS011;2117;47.972;7.830;2023-01-20T05:34:07;12.73;;;7.53;;
4206;SDS011;2117;47.972;7.830;2023-01-20T05:36:33;22.73;;;11.90;;
4206;SDS011;2117;47.972;7.830;2023-01-20T05:38:58;21.43;;;11.90;;
4206;SDS011;2117;47.972;7.830;2023-01-20T05:41:24;20.33;;;13.90;;
4206;SDS011;2117;47.972;7.830;2023-01-20T05:43:51;26.20;;;14.93;;
4206;SDS011;2117;47.972;7.830;2023-01-20T05:46:17;23.50;;;15.00;;
4206;SDS011;2117;47.972;7.830;2023-01-20T05:48:43;25.40;;;15.83;;
4206;SDS011;2117;47.972;7.830;2023-01-20T05:51:09;23.83;;;15.87;;
4206;SDS011;2117;47.972;7.830;2023-01-20T05:53:34;28.77;;;17.80;;
4206;SDS011;2117;47.972;7.830;2023-01-20T05:56:00;26.47;;;16.40;;
4206;SDS011;2117;47.972;7.830;2023-01-20T05:58:28;26.70;;;17.90;;
4206;SDS011;2117;47.972;7.830;2023-01-20T06:00:54;24.53;;;15.37;;
4206;SDS011;2117;47.972;7.830;2023-01-20T06:03:19;28.40;;;17.47;;
4206;SDS011;2117;47.972;7.830;2023-01-20T06:05:45;29.30;;;16.47;;
4206;SDS011;2117;47.972;7.830;2023-01-20T06:08:13;20.57;;;14.43;;
4206;SDS011;2117;47.972;7.830;2023-01-20T06:10:38;24.70;;;17.17;;
4206;SDS011;2117;47.972;7.830;2023-01-20T06:13:04;25.43;;;13.93;;
4206;SDS011;2117;47.972;7.830;2023-01-20T06:15:29;22.10;;;12.83;;
4206;SDS011;2117;47.972;7.830;2023-01-20T06:17:55;19.10;;;13.03;;
4206;SDS011;2117;47.972;7.830;2023-01-20T06:20:21;16.27;;;10.60;;
4206;SDS011;2117;47.972;7.830;2023-01-20T06:22:46;13.40;;;9.97;;
4206;SDS011;2117;47.972;7.830;2023-01-20T06:25:12;13.80;;;8.47;;
4206;SDS011;2117;47.972;7.830;2023-01-20T06:27:38;14.03;;;9.13;;
4206;SDS011;2117;47.972;7.830;2023-01-20T06:30:04;17.13;;;12.20;;
4206;SDS011;2117;47.972;7.830;2023-01-20T06:32:30;20.07;;;11.90;;
4206;SDS011;2117;47.972;7.830;2023-01-20T06:34:55;18.00;;;11.73;;
4206;SDS011;2117;47.972;7.830;2023-01-20T06:37:21;15.10;;;11.50;;
4206;SDS011;2117;47.972;7.830;2023-01-20T06:39:47;14.43;;;10.40;;
4206;SDS011;2117;47.972;7.830;2023-01-20T06:42:12;19.77;;;12.27;;
4206;SDS011;2117;47.972;7.830;2023-01-20T06:44:38;16.70;;;11.37;;
4206;SDS011;2117;47.972;7.830;2023-01-20T06:47:03;22.90;;;11.47;;
4206;SDS011;2117;47.972;7.830;2023-01-20T06:49:29;13.50;;;9.40;;
4206;SDS011;2117;47.972;7.830;2023-01-20T06:51:55;13.83;;;10.13;;
4206;SDS011;2117;47.972;7.830;2023-01-20T06:54:20;14.27;;;9.90;;
4206;SDS011;2117;47.972;7.830;2023-01-20T06:56:46;16.53;;;8.73;;
4206;SDS011;2117;47.972;7.830;2023-01-20T06:59:11;15.50;;;9.60;;
4206;SDS011;2117;47.972;7.830;2023-01-20T07:01:37;12.83;;;8.90;;
4206;SDS011;2117;47.972;7.830;2023-01-20T07:04:03;13.33;;;8.10;;
4206;SDS011;2117;47.972;7.830;2023-01-20T07:06:30;14.17;;;9.73;;
4206;SDS011;2117;47.972;7.830;2023-01-20T07:09:03;16.07;;;8.97;;
4206;SDS011;2117;47.972;7.830;2023-01-20T07:11:30;17.60;;;10.40;;
4206;SDS011;2117;47.972;7.830;2023-01-20T07:13:55;18.93;;;8.77;;
4206;SDS011;2117;47.972;7.830;2023-01-20T07:16:22;17.23;;;10.00;;
4206;SDS011;2117;47.972;7.830;2023-01-20T07:18:48;15.77;;;9.37;;
4206;SDS011;2117;47.972;7.830;2023-01-20T07:21:15;17.23;;;8.80;;
4206;SDS011;2117;47.972;7.830;2023-01-20T07:23:41;22.50;;;10.70;;
4206;SDS011;2117;47.972;7.830;2023-01-20T07:26:08;14.57;;;9.00;;
4206;SDS011;2117;47.972;7.830;2023-01-20T07:28:36;18.30;;;10.40;;
4206;SDS011;2117;47.972;7.830;2023-01-20T07:31:02;14.77;;;8.23;;
4206;SDS011;2117;47.972;7.830;2023-01-20T07:33:29;13.40;;;7.70;;
4206;SDS011;2117;47.972;7.830;2023-01-20T07:35:55;8.20;;;5.90;;
4206;SDS011;2117;47.972;7.830;2023-01-20T07:38:21;9.97;;;6.13;;
4206;SDS011;2117;47.972;7.830;2023-01-20T07:40:46;10.07;;;5.87;;
4206;SDS011;2117;47.972;7.830;2023-01-20T07:43:12;12.20;;;6.83;;
4206;SDS011;2117;47.972;7.830;2023-01-20T07:45:38;10.03;;;7.10;;
4206;SDS011;2117;47.972;7.830;2023-01-20T07:48:04;11.97;;;7.00;;
4206;SDS011;2117;47.972;7.830;2023-01-20T07:50:30;10.50;;;6.00;;
4206;SDS011;2117;47.972;7.830;2023-01-20T07:52:56;13.10;;;7.57;;
4206;SDS011;2117;47.972;7.830;2023-01-20T07:55:22;10.43;;;7.00;;
4206;SDS011;2117;47.972;7.830;2023-01-20T07:57:47;10.93;;;6.90;;
4206;SDS011;2117;47.972;7.830;2023-01-20T08:00:15;10.03;;;7.60;;
4206;SDS011;2117;47.972;7.830;2023-01-20T08:02:42;7.80;;;5.57;;
4206;SDS011;2117;47.972;7.830;2023-01-20T08:05:07;12.37;;;6.57;;
4206;SDS011;2117;47.972;7.830;2023-01-20T08:07:33;10.40;;;7.10;;
4206;SDS011;2117;47.972;7.830;2023-01-20T08:09:58;14.80;;;8.33;;
4206;SDS011;2117;47.972;7.830;2023-01-20T08:12:24;9.87;;;6.83;;
4206;SDS011;2117;47.972;7.830;2023-01-20T08:14:50;10.13;;;7.30;;
4206;SDS011;2117;47.972;7.830;2023-01-20T08:17:15;8.83;;;6.33;;
4206;SDS011;2117;47.972;7.830;2023-01-20T08:19:41;9.47;;;5.40;;
4206;SDS011;2117;47.972;7.830;2023-01-20T08:22:06;7.27;;;4.80;;
4206;SDS011;2117;47.972;7.830;2023-01-20T08:24:32;10.53;;;5.30;;
4206;SDS011;2117;47.972;7.830;2023-01-20T08:26:57;12.07;;;5.90;;
4206;SDS011;2117;47.972;7.830;2023-01-20T08:29:23;8.00;;;5.43;;
4206;SDS011;2117;47.972;7.830;2023-01-20T08:31:49;7.43;;;4.90;;
4206;SDS011;2117;47.972;7.830;2023-01-20T08:34:15;10.23;;;5.10;;
4206;SDS011;2117;47.972;7.830;2023-01-20T08:36:42;7.40;;;4.37;;
4206;SDS011;2117;47.972;7.830;2023-01-20T08:39:09;9.67;;;6.63;;
4206;SDS011;2117;47.972;7.830;2023-01-20T08:41:38;9.03;;;5.20;;
4206;SDS011;2117;47.972;7.830;2023-01-20T08:44:05;6.43;;;4.77;;
4206;SDS011;2117;47.972;7.830;2023-01-20T08:46:31;9.67;;;5.80;;
4206;SDS011;2117;47.972;7.830;2023-01-20T08:48:57;10.37;;;5.70;;
4206;SDS011;2117;47.972;7.830;2023-01-20T08:51:27;10.27;;;6.43;;
4206;SDS011;2117;47.972;7.830;2023-01-20T08:53:54;9.00;;;5.60;;
4206;SDS011;2117;47.972;7.830;2023-01-20T08:56:20;11.70;;;5.70;;
4206;SDS011;2117;47.972;7.830;2023-01-20T08:58:46;9.87;;;5.70;;
4206;SDS011;2117;47.972;7.830;2023-01-20T09:01:14;11.93;;;6.70;;
4206;SDS011;2117;47.972;7.830;2023-01-20T09:03:48;11.00;;;7.20;;
4206;SDS011;2117;47.972;7.830;2023-01-20T09:06:15;7.67;;;5.43;;
4206;SDS011;2117;47.972;7.830;2023-01-20T09:08:41;9.20;;;5.67;;
4206;SDS011;2117;47.972;7.830;2023-01-20T09:11:08;9.53;;;5.57;;
4206;SDS011;2117;47.972;7.830;2023-01-20T09:13:37;14.47;;;6.30;;
4206;SDS011;2117;47.972;7.830;2023-01-20T09:16:02;9.93;;;5.80;;
4206;SDS011;2117;47.972;7.830;2023-01-20T09:18:29;9.73;;;5.57;;
4206;SDS011;2117;47.972;7.830;2023-01-20T09:20:58;7.43;;;5.10;;
4206;SDS011;2117;47.972;7.830;2023-01-20T09:23:26;7.13;;;4.50;;
4206;SDS011;2117;47.972;7.830;2023-01-20T09:25:52;8.57;;;5.80;;
4206;SDS011;2117;47.972;7.830;2023-01-20T09:28:18;8.97;;;5.07;;
4206;SDS011;2117;47.972;7.830;2023-01-20T09:30:43;8.57;;;5.40;;
4206;SDS011;2117;47.972;7.830;2023-01-20T09:33:09;10.17;;;5.60;;
4206;SDS011;2117;47.972;7.830;2023-01-20T09:35:35;15.57;;;5.87;;
4206;SDS011;2117;47.972;7.830;2023-01-20T09:38:01;10.63;;;6.23;;
4206;SDS011;2117;47.972;7.830;2023-01-20T09:40:49;8.30;;;5.73;;
4206;SDS011;2117;47.972;7.830;2023-01-20T09:43:54;17.47;;;6.20;;
4206;SDS011;2117;47.972;7.830;2023-01-20T09:53:03;12.23;;;7.97;;
4206;SDS011;2117;47.972;7.830;2023-01-20T09:55:43;12.77;;;7.07;;
4206;SDS011;2117;47.972;7.830;2023-01-20T09:58:54;11.80;;;7.00;;
4206;SDS011;2117;47.972;7.830;2023-01-20T10:04:10;14.17;;;9.67;;
4206;SDS011;2117;47.972;7.830;2023-01-20T10:09:21;14.50;;;10.77;;
4206;SDS011;2117;47.972;7.830;2023-01-20T10:12:07;14.20;;;9.53;;
4206;SDS011;2117;47.972;7.830;2023-01-20T10:14:46;15.60;;;9.43;;
4206;SDS011;2117;47.972;7.830;2023-01-20T10:22:18;15.70;;;10.70;;
4206;SDS011;2117;47.972;7.830;2023-01-20T10:25:01;18.17;;;10.60;;
4206;SDS011;2117;47.972;7.830;2023-01-20T10:27:33;16.80;;;11.93;;
4206;SDS011;2117;47.972;7.830;2023-01-20T10:30:11;18.17;;;12.13;;
4206;SDS011;2117;47.972;7.830;2023-01-20T10:32:39;22.23;;;13.20;;
4206;SDS011;2117;47.972;7.830;2023-01-20T10:35:13;16.27;;;12.77;;
4206;SDS011;2117;47.972;7.830;2023-01-20T10:37:53;23.30;;;12.00;;
4206;SDS011;2117;47.972;7.830;2023-01-20T10:42:48;22.83;;;14.17;;
4206;SDS011;2117;47.972;7.830;2023-01-20T10:45:20;19.77;;;14.37;;
4206;SDS011;2117;47.972;7.830;2023-01-20T10:48:30;23.70;;;14.57;;
4206;SDS011;2117;47.972;7.830;2023-01-20T10:57:00;20.67;;;12.43;;
4206;SDS011;2117;47.972;7.830;2023-01-20T10:59:30;20.70;;;14.20;;
4206;SDS011;2117;47.972;7.830;2023-01-20T11:05:23;25.57;;;15.27;;
4206;SDS011;2117;47.972;7.830;2023-01-20T11:07:49;25.63;;;16.70;;
4206;SDS011;2117;47.972;7.830;2023-01-20T11:10:19;20.90;;;14.90;;
4206;SDS011;2117;47.972;7.830;2023-01-20T11:12:49;23.33;;;14.37;;
4206;SDS011;2117;47.972;7.830;2023-01-20T11:15:18;18.77;;;12.47;;
4206;SDS011;2117;47.972;7.830;2023-01-20T11:17:46;10.40;;;7.67;;
4206;SDS011;2117;47.972;7.830;2023-01-20T11:20:37;11.93;;;8.97;;
4206;SDS011;2117;47.972;7.830;2023-01-20T11:23:22;15.37;;;9.67;;
4206;SDS011;2117;47.972;7.830;2023-01-20T11:25:59;16.73;;;9.00;;
4206;SDS011;2117;47.972;7.830;2023-01-20T11:28:55;15.33;;;9.30;;
4206;SDS011;2117;47.972;7.830;2023-01-20T11:31:34;15.37;;;9.70;;
4206;SDS011;2117;47.972;7.830;2023-01-20T11:34:20;17.07;;;12.30;;
4206;SDS011;2117;47.972;7.830;2023-01-20T11:39:31;15.40;;;9.90;;
4206;SDS011;2117;47.972;7.830;2023-01-20T11:44:41;16.57;;;11.33;;
4206;SDS011;2117;47.972;7.830;2023-01-20T11:47:21;15.67;;;10.70;;
4206;SDS011;2117;47.972;7.830;2023-01-20T11:52:37;18.73;;;11.20;;
4206;SDS011;2117;47.972;7.830;2023-01-20T11:57:45;22.07;;;13.60;;
4206;SDS011;2117;47.972;7.830;2023-01-20T12:02:43;21.80;;;12.70;;
4206;SDS011;2117;47.972;7.830;2023-01-20T12:05:21;18.70;;;12.20;;
4206;SDS011;2117;47.972;7.830;2023-01-20T12:07:54;20.47;;;12.90;;
4206;SDS011;2117;47.972;7.830;2023-01-20T12:10:27;20.07;;;12.50;;
4206;SDS011;2117;47.972;7.830;2023-01-20T12:12:57;19.17;;;13.10;;
4206;SDS011;2117;47.972;7.830;2023-01-20T12:15:46;27.33;;;14.93;;
4206;SDS011;2117;47.972;7.830;2023-01-20T12:18:31;23.63;;;13.47;;
4206;SDS011;2117;47.972;7.830;2023-01-20T12:23:54;24.73;;;13.17;;
4206;SDS011;2117;47.972;7.830;2023-01-20T12:26:26;21.67;;;13.50;;
4206;SDS011;2117;47.972;7.830;2023-01-20T12:31:43;23.60;;;13.63;;
4206;SDS011;2117;47.972;7.830;2023-01-20T12:34:26;20.83;;;14.17;;
4206;SDS011;2117;47.972;7.830;2023-01-20T12:37:07;28.90;;;13.67;;
4206;SDS011;2117;47.972;7.830;2023-01-20T12:39:50;24.17;;;13.90;;
4206;SDS011;2117;47.972;7.830;2023-01-20T12:48:03;20.00;;;13.07;;
4206;SDS011;2117;47.972;7.830;2023-01-20T13:04:54;28.53;;;14.43;;
4206;SDS011;2117;47.972;7.830;2023-01-20T13:08:06;23.20;;;14.53;;
4206;SDS011;2117;47.972;7.830;2023-01-20T13:13:16;24.17;;;14.50;;
4206;SDS011;2117;47.972;7.830;2023-01-20T13:15:44;22.87;;;15.67;;
4206;SDS011;2117;47.972;7.830;2023-01-20T13:18:22;20.40;;;13.93;;
4206;SDS011;2117;47.972;7.830;2023-01-20T13:21:17;19.73;;;11.40;;
4206;SDS011;2117;47.972;7.830;2023-01-20T13:23:45;20.53;;;11.40;;
4206;SDS011;2117;47.972;7.830;2023-01-20T13:26:12;14.57;;;9.87;;
4206;SDS011;2117;47.972;7.830;2023-01-20T13:28:39;15.00;;;9.57;;
4206;SDS011;2117;47.972;7.830;2023-01-20T13:31:31;13.50;;;9.67;;
4206;SDS011;2117;47.972;7.830;2023-01-20T13:37:27;16.97;;;11.80;;
4206;SDS011;2117;47.972;7.830;2023-01-20T13:39:53;16.07;;;10.70;;
4206;SDS011;2117;47.972;7.830;2023-01-20T13:45:19;20.90;;;12.90;;
4206;SDS011;2117;47.972;7.830;2023-01-20T13:50:45;16.50;;;11.13;;
4206;SDS011;2117;47.972;7.830;2023-01-20T13:58:25;18.03;;;11.50;;
4206;SDS011;2117;47.972;7.830;2023-01-20T14:00:52;19.20;;;11.77;;
4206;SDS011;2117;47.972;7.830;2023-01-20T14:06:01;17.20;;;10.87;;
4206;SDS011;2117;47.972;7.830;2023-01-20T14:08:39;18.60;;;11.50;;
4206;SDS011;2117;47.972;7.830;2023-01-20T14:11:11;18.23;;;12.50;;
4206;SDS011;2117;47.972;7.830;2023-01-20T14:13:39;17.63;;;10.87;;
4206;SDS011;2117;47.972;7.830;2023-01-20T14:16:15;17.50;;;11.73;;
4206;SDS011;2117;47.972;7.830;2023-01-20T14:18:43;18.73;;;12.33;;
4206;SDS011;2117;47.972;7.830;2023-01-20T14:21:19;19.40;;;12.87;;
4206;SDS011;2117;47.972;7.830;2023-01-20T14:23:47;14.37;;;10.30;;
4206;SDS011;2117;47.972;7.830;2023-01-20T14:26:19;12.03;;;7.90;;
4206;SDS011;2117;47.972;7.830;2023-01-20T14:28:53;12.43;;;8.80;;
4206;SDS011;2117;47.972;7.830;2023-01-20T14:31:36;15.70;;;11.20;;
4206;SDS011;2117;47.972;7.830;2023-01-20T14:34:25;11.83;;;7.90;;
4206;SDS011;2117;47.972;7.830;2023-01-20T14:36:54;12.27;;;7.93;;
4206;SDS011;2117;47.972;7.830;2023-01-20T14:39:23;16.97;;;8.00;;
4206;SDS011;2117;47.972;7.830;2023-01-20T14:41:54;17.10;;;9.40;;
4206;SDS011;2117;47.972;7.830;2023-01-20T14:44:23;11.57;;;8.07;;
4206;SDS011;2117;47.972;7.830;2023-01-20T14:46:51;10.63;;;8.00;;
4206;SDS011;2117;47.972;7.830;2023-01-20T14:49:18;11.50;;;8.20;;
4206;SDS011;2117;47.972;7.830;2023-01-20T14:51:46;9.97;;;8.47;;
4206;SDS011;2117;47.972;7.830;2023-01-20T14:57:03;10.77;;;6.13;;
4206;SDS011;2117;47.972;7.830;2023-01-20T15:00:00;11.73;;;6.77;;
4206;SDS011;2117;47.972;7.830;2023-01-20T15:02:31;13.60;;;8.10;;
4206;SDS011;2117;47.972;7.830;2023-01-20T15:04:58;11.97;;;7.27;;
4206;SDS011;2117;47.972;7.830;2023-01-20T15:07:24;9.53;;;6.30;;
4206;SDS011;2117;47.972;7.830;2023-01-20T15:09:54;11.97;;;7.20;;
4206;SDS011;2117;47.972;7.830;2023-01-20T15:12:31;7.90;;;6.07;;
4206;SDS011;2117;47.972;7.830;2023-01-20T15:17:31;11.30;;;7.73;;
4206;SDS011;2117;47.972;7.830;2023-01-20T15:19:58;17.67;;;8.80;;
4206;SDS011;2117;47.972;7.830;2023-01-20T15:22:24;10.03;;;7.83;;
4206;SDS011;2117;47.972;7.830;2023-01-20T15:24:51;13.43;;;9.10;;
4206;SDS011;2117;47.972;7.830;2023-01-20T15:27:22;15.00;;;9.47;;
4206;SDS011;2117;47.972;7.830;2023-01-20T15:32:47;12.67;;;8.20;;
4206;SDS011;2117;47.972;7.830;2023-01-20T15:35:14;21.90;;;10.30;;
4206;SDS011;2117;47.972;7.830;2023-01-20T15:37:41;16.03;;;10.00;;
4206;SDS011;2117;47.972;7.830;2023-01-20T15:40:29;14.53;;;8.13;;
4206;SDS011;2117;47.972;7.830;2023-01-20T15:42:54;15.17;;;8.30;;
4206;SDS011;2117;47.972;7.830;2023-01-20T15:45:21;13.23;;;9.20;;
4206;SDS011;2117;47.972;7.830;2023-01-20T15:47:46;14.60;;;8.60;;
4206;SDS011;2117;47.972;7.830;2023-01-20T15:50:20;16.67;;;8.10;;
4206;SDS011;2117;47.972;7.830;2023-01-20T15:52:48;16.30;;;8.67;;
4206;SDS011;2117;47.972;7.830;2023-01-20T15:55:14;21.80;;;7.40;;
4206;SDS011;2117;47.972;7.830;2023-01-20T15:57:42;14.67;;;9.20;;
4206;SDS011;2117;47.972;7.830;2023-01-20T16:00:19;16.30;;;9.43;;
4206;SDS011;2117;47.972;7.830;2023-01-20T16:02:46;15.83;;;9.20;;
4206;SDS011;2117;47.972;7.830;2023-01-20T16:05:12;16.93;;;9.87;;
4206;SDS011;2117;47.972;7.830;2023-01-20T16:07:37;23.73;;;10.87;;
4206;SDS011;2117;47.972;7.830;2023-01-20T16:10:04;16.67;;;11.30;;
4206;SDS011;2117;47.972;7.830;2023-01-20T16:12:30;21.37;;;11.60;;
4206;SDS011;2117;47.972;7.830;2023-01-20T16:14:56;15.67;;;9.20;;
4206;SDS011;2117;47.972;7.830;2023-01-20T16:17:22;16.57;;;10.90;;
4206;SDS011;2117;47.972;7.830;2023-01-20T16:19:50;17.20;;;10.07;;
4206;SDS011;2117;47.972;7.830;2023-01-20T16:22:15;12.23;;;7.93;;
4206;SDS011;2117;47.972;7.830;2023-01-20T16:24:41;17.53;;;8.60;;
4206;SDS011;2117;47.972;7.830;2023-01-20T16:27:17;15.83;;;8.80;;
4206;SDS011;2117;47.972;7.830;2023-01-20T16:29:44;19.73;;;8.80;;
4206;SDS011;2117;47.972;7.830;2023-01-20T16:32:10;20.30;;;9.70;;
4206;SDS011;2117;47.972;7.830;2023-01-20T16:34:36;12.83;;;7.53;;
4206;SDS011;2117;47.972;7.830;2023-01-20T16:37:02;13.00;;;8.20;;
4206;SDS011;2117;47.972;7.830;2023-01-20T16:39:28;14.40;;;8.67;;
4206;SDS011;2117;47.972;7.830;2023-01-20T16:41:54;15.37;;;8.57;;
4206;SDS011;2117;47.972;7.830;2023-01-20T16:44:19;14.27;;;9.50;;
4206;SDS011;2117;47.972;7.830;2023-01-20T16:46:45;14.00;;;9.40;;
4206;SDS011;2117;47.972;7.830;2023-01-20T16:49:11;14.23;;;9.37;;
4206;SDS011;2117;47.972;7.830;2023-01-20T16:51:37;14.87;;;9.03;;
4206;SDS011;2117;47.972;7.830;2023-01-20T16:54:03;13.87;;;9.47;;
4206;SDS011;2117;47.972;7.830;2023-01-20T16:56:29;15.77;;;9.17;;
4206;SDS011;2117;47.972;7.830;2023-01-20T16:58:57;15.07;;;8.40;;
4206;SDS011;2117;47.972;7.830;2023-01-20T17:01:25;15.13;;;9.00;;
4206;SDS011;2117;47.972;7.830;2023-01-20T17:03:53;12.10;;;7.50;;
4206;SDS011;2117;47.972;7.830;2023-01-20T17:06:20;18.30;;;10.87;;
4206;SDS011;2117;47.972;7.830;2023-01-20T17:08:52;15.60;;;11.07;;
4206;SDS011;2117;47.972;7.830;2023-01-20T17:11:26;14.00;;;8.43;;
4206;SDS011;2117;47.972;7.830;2023-01-20T17:13:53;12.20;;;7.60;;
4206;SDS011;2117;47.972;7.830;2023-01-20T17:16:20;11.30;;;8.30;;
4206;SDS011;2117;47.972;7.830;2023-01-20T17:18:49;13.00;;;7.83;;
4206;SDS011;2117;47.972;7.830;2023-01-20T17:21:15;11.87;;;7.07;;
4206;SDS011;2117;47.972;7.830;2023-01-20T17:23:47;12.80;;;6.97;;
4206;SDS011;2117;47.972;7.830;2023-01-20T17:26:20;11.63;;;7.10;;
4206;SDS011;2117;47.972;7.830;2023-01-20T17:28:47;9.73;;;6.70;;
4206;SDS011;2117;47.972;7.830;2023-01-20T17:31:12;10.93;;;7.10;;
4206;SDS011;2117;47.972;7.830;2023-01-20T17:33:38;12.13;;;6.63;;
4206;SDS011;2117;47.972;7.830;2023-01-20T17:36:09;14.90;;;6.87;;
4206;SDS011;2117;47.972;7.830;2023-01-20T17:38:35;13.03;;;5.30;;
4206;SDS011;2117;47.972;7.830;2023-01-20T17:41:04;8.90;;;5.73;;
4206;SDS011;2117;47.972;7.830;2023-01-20T17:43:31;10.90;;;6.53;;
4206;SDS011;2117;47.972;7.830;2023-01-20T17:46:09;7.43;;;5.73;;
4206;SDS011;2117;47.972;7.830;2023-01-20T17:48:46;8.00;;;5.20;;
4206;SDS011;2117;47.972;7.830;2023-01-20T17:51:14;10.40;;;6.03;;
4206;SDS011;2117;47.972;7.830;2023-01-20T17:53:44;8.13;;;5.07;;
4206;SDS011;2117;47.972;7.830;2023-01-20T17:56:10;8.10;;;5.60;;
4206;SDS011;2117;47.972;7.830;2023-01-20T17:58:37;9.73;;;5.07;;
4206;SDS011;2117;47.972;7.830;2023-01-20T18:01:16;9.40;;;5.90;;
4206;SDS011;2117;47.972;7.830;2023-01-20T18:03:43;10.57;;;5.97;;
4206;SDS011;2117;47.972;7.830;2023-01-20T18:06:10;8.73;;;6.17;;
4206;SDS011;2117;47.972;7.830;2023-01-20T18:08:36;13.97;;;5.73;;
4206;SDS011;2117;47.972;7.830;2023-01-20T18:11:03;12.07;;;5.70;;
4206;SDS011;2117;47.972;7.830;2023-01-20T18:13:29;7.73;;;5.70;;
4206;SDS011;2117;47.972;7.830;2023-01-20T18:15:55;7.93;;;5.23;;
4206;SDS011;2117;47.972;7.830;2023-01-20T18:18:21;8.80;;;5.80;;
4206;SDS011;2117;47.972;7.830;2023-01-20T18:20:47;8.47;;;4.90;;
4206;SDS011;2117;47.972;7.830;2023-01-20T18:23:13;8.30;;;4.67;;
4206;SDS011;2117;47.972;7.830;2023-01-20T18:25:38;7.43;;;4.60;;
4206;SDS011;2117;47.972;7.830;2023-01-20T18:28:04;7.47;;;4.27;;
4206;SDS011;2117;47.972;7.830;2023-01-20T18:30:29;6.33;;;4.30;;
4206;SDS011;2117;47.972;7.830;2023-01-20T18:32:55;8.80;;;4.57;;
4206;SDS011;2117;47.972;7.830;2023-01-20T18:35:21;6.07;;;3.20;;
4206;SDS011;2117;47.972;7.830;2023-01-20T18:37:47;5.03;;;2.60;;
4206;SDS011;2117;47.972;7.830;2023-01-20T18:40:12;6.27;;;4.43;;
4206;SDS011;2117;47.972;7.830;2023-01-20T18:42:38;6.20;;;4.03;;
4206;SDS011;2117;47.972;7.830;2023-01-20T18:45:04;6.60;;;4.50;;
4206;SDS011;2117;47.972;7.830;2023-01-20T18:47:30;7.00;;;4.33;;
4206;SDS011;2117;47.972;7.830;2023-01-20T18:49:55;8.17;;;4.37;;
4206;SDS011;2117;47.972;7.830;2023-01-20T18:52:21;3.83;;;3.20;;
4206;SDS011;2117;47.972;7.830;2023-01-20T18:54:47;6.17;;;5.30;;
4206;SDS011;2117;47.972;7.830;2023-01-20T18:57:12;5.83;;;4.10;;
4206;SDS011;2117;47.972;7.830;2023-01-20T18:59:38;8.13;;;3.30;;
4206;SDS011;2117;47.972;7.830;2023-01-20T19:02:07;6.87;;;3.20;;
4206;SDS011;2117;47.972;7.830;2023-01-20T19:04:33;5.00;;;3.23;;
4206;SDS011;2117;47.972;7.830;2023-01-20T19:07:00;5.40;;;4.00;;
4206;SDS011;2117;47.972;7.830;2023-01-20T19:09:26;6.93;;;4.57;;
4206;SDS011;2117;47.972;7.830;2023-01-20T19:11:51;7.50;;;4.93;;
4206;SDS011;2117;47.972;7.830;2023-01-20T19:14:17;6.27;;;4.40;;
4206;SDS011;2117;47.972;7.830;2023-01-20T19:16:42;12.20;;;6.27;;
4206;SDS011;2117;47.972;7.830;2023-01-20T19:19:13;13.57;;;8.30;;
4206;SDS011;2117;47.972;7.830;2023-01-20T19:21:41;16.77;;;9.43;;
4206;SDS011;2117;47.972;7.830;2023-01-20T19:24:08;24.87;;;10.60;;
4206;SDS011;2117;47.972;7.830;2023-01-20T19:26:38;15.47;;;9.20;;
4206;SDS011;2117;47.972;7.830;2023-01-20T19:29:07;16.60;;;10.30;;
4206;SDS011;2117;47.972;7.830;2023-01-20T19:31:36;23.90;;;10.60;;
4206;SDS011;2117;47.972;7.830;2023-01-20T19:34:03;17.13;;;9.00;;
4206;SDS011;2117;47.972;7.830;2023-01-20T19:36:30;10.50;;;6.80;;